createdAt,value
2023-01-06T00:00:53.968Z,9.27
2023-01-06T00:05:59.198Z,5.93
2023-01-06T00:11:05.475Z,9.75
2023-01-06T00:16:08.751Z,11.63
2023-01-06T00:26:14.753Z,6.70
2023-01-06T00:31:17.842Z,8.82
2023-01-06T00:36:21.481Z,7.05
2023-01-06T00:41:42.767Z,7.40
2023-01-06T00:46:45.172Z,8.73
2023-01-06T00:51:47.884Z,7.68
2023-01-06T00:56:52.425Z,8.50
2023-01-06T01:01:55.497Z,10.93
2023-01-06T01:06:58.044Z,11.07
2023-01-06T01:12:11.622Z,13.98
2023-01-06T01:17:15.069Z,14.15
2023-01-06T01:27:21.151Z,14.25
2023-01-06T01:32:23.529Z,14.02
2023-01-06T01:37:25.887Z,20.20
2023-01-06T01:42:29.723Z,13.70
2023-01-06T01:47:38.080Z,13.45
2023-01-06T01:52:41.099Z,17.35
2023-01-06T01:57:49.294Z,11.25
2023-01-06T02:02:51.687Z,14.63
2023-01-06T02:07:54.216Z,10.23
2023-01-06T02:12:59.190Z,14.13
2023-01-06T02:18:08.148Z,10.48
2023-01-06T02:23:24.199Z,10.45
2023-01-06T02:28:36.258Z,10.05
2023-01-06T02:33:43.618Z,8.25
2023-01-06T02:38:52.749Z,6.70
2023-01-06T02:44:00.010Z,9.10
2023-01-06T02:49:10.485Z,11.18
2023-01-06T02:54:18.091Z,7.65
2023-01-06T02:59:23.532Z,11.88
2023-01-06T03:04:29.969Z,9.05
2023-01-06T03:09:34.114Z,7.72
2023-01-06T03:14:38.878Z,6.63
2023-01-06T03:19:42.861Z,7.05
2023-01-06T03:24:46.142Z,6.05
2023-01-06T03:29:48.703Z,5.70
2023-01-06T03:34:59.093Z,5.33
2023-01-06T03:40:05.006Z,4.85
2023-01-06T03:45:15.800Z,6.78
2023-01-06T03:50:21.587Z,4.40
2023-01-06T03:55:26.744Z,5.45
2023-01-06T04:00:30.556Z,4.70
2023-01-06T04:05:34.287Z,4.47
2023-01-06T04:10:36.632Z,4.22
2023-01-06T04:15:38.978Z,4.60
2023-01-06T04:20:42.694Z,4.90
2023-01-06T04:25:45.267Z,4.72
2023-01-06T04:30:47.750Z,3.67
2023-01-06T04:35:51.467Z,5.72
2023-01-06T04:40:53.867Z,3.53
2023-01-06T04:45:58.610Z,2.88
2023-01-06T04:51:02.825Z,6.82
2023-01-06T04:56:05.471Z,3.78
2023-01-06T05:01:09.261Z,5.27
2023-01-06T05:06:13.106Z,4.65
2023-01-06T05:11:16.867Z,3.55
2023-01-06T05:16:19.886Z,6.30
2023-01-06T05:21:24.812Z,3.08
2023-01-06T05:26:28.403Z,2.65
2023-01-06T05:31:30.844Z,12.00
2023-01-06T05:36:34.556Z,8.47
2023-01-06T05:41:36.955Z,1.55
2023-01-06T05:46:39.348Z,3.83
2023-01-06T05:51:43.082Z,3.20
2023-01-06T05:56:45.434Z,3.65
2023-01-06T06:01:47.922Z,1.95
2023-01-06T06:06:51.777Z,6.83
2023-01-06T06:11:54.608Z,3.05
2023-01-06T06:16:56.959Z,2.55
2023-01-06T06:22:02.700Z,3.63
2023-01-06T06:27:05.360Z,2.63
2023-01-06T06:32:07.765Z,2.30
2023-01-06T06:37:12.628Z,1.93
2023-01-06T06:42:15.122Z,2.75
2023-01-06T06:47:17.494Z,4.32
2023-01-06T06:52:21.204Z,3.00
2023-01-06T06:57:23.601Z,2.80
2023-01-06T07:02:25.988Z,3.78
2023-01-06T07:07:29.758Z,3.05
2023-01-06T07:12:32.164Z,2.30
2023-01-06T07:17:34.559Z,2.45
2023-01-06T07:22:39.843Z,4.47
2023-01-06T07:27:42.197Z,2.95
2023-01-06T07:32:44.584Z,3.90
2023-01-06T07:37:48.332Z,4.32
2023-01-06T07:42:50.673Z,2.35
2023-01-06T07:47:52.999Z,5.55
2023-01-06T07:52:58.092Z,4.70
2023-01-06T07:58:00.454Z,4.57
2023-01-06T08:03:05.233Z,4.82
2023-01-06T08:08:09.242Z,5.55
2023-01-06T08:13:11.614Z,3.97
2023-01-06T08:18:13.943Z,8.23
2023-01-06T08:23:17.751Z,5.47
2023-01-06T08:28:20.129Z,4.85
2023-01-06T08:33:24.085Z,7.40
2023-01-06T08:38:27.967Z,7.53
2023-01-06T08:43:31.531Z,8.13
2023-01-06T08:48:35.148Z,6.93
2023-01-06T08:53:38.852Z,7.53
2023-01-06T08:58:41.366Z,8.10
2023-01-06T09:03:43.752Z,6.00
2023-01-06T09:08:48.583Z,5.00
2023-01-06T09:13:51.614Z,6.05
2023-01-06T09:18:54.039Z,6.18
2023-01-06T09:23:57.831Z,7.32
2023-01-06T09:29:00.254Z,8.05
2023-01-06T09:34:02.603Z,6.05
2023-01-06T09:39:06.376Z,6.65
2023-01-06T09:44:12.335Z,5.70
2023-01-06T09:49:20.221Z,2.65
2023-01-06T09:54:25.678Z,2.58
2023-01-06T09:59:31.564Z,5.72
2023-01-06T10:04:33.938Z,4.15
2023-01-06T10:09:42.287Z,2.80
2023-01-06T10:14:50.964Z,3.67
2023-01-06T10:20:00.263Z,2.92
2023-01-06T10:25:06.667Z,4.72
2023-01-06T10:30:17.227Z,4.65
2023-01-06T10:35:21.078Z,3.60
2023-01-06T10:40:26.607Z,3.00
2023-01-06T10:45:30.867Z,3.67
2023-01-06T10:50:34.312Z,3.65
2023-01-06T10:55:40.129Z,4.97
2023-01-06T11:00:55.212Z,3.10
2023-01-06T11:06:01.719Z,3.40
2023-01-06T11:11:16.518Z,3.83
2023-01-06T11:16:29.898Z,1.52
2023-01-06T11:21:40.161Z,4.97
2023-01-06T11:26:46.369Z,4.75
2023-01-06T11:31:49.230Z,1.80
2023-01-06T11:36:52.499Z,3.22
2023-01-06T11:46:59.185Z,5.38
2023-01-06T11:52:02.892Z,5.32
2023-01-06T11:57:24.044Z,3.63
2023-01-06T12:02:31.305Z,2.35
2023-01-06T12:07:36.929Z,3.05
2023-01-06T12:12:39.317Z,4.25
2023-01-06T12:17:44.688Z,3.90
2023-01-06T12:22:48.944Z,3.90
2023-01-06T12:27:53.001Z,2.58
2023-01-06T12:32:59.289Z,3.58
2023-01-06T12:38:04.726Z,6.68
2023-01-06T12:43:12.952Z,7.22
2023-01-06T12:48:19.786Z,3.08
2023-01-06T12:53:24.833Z,5.57
2023-01-06T12:58:30.033Z,4.00
2023-01-06T13:03:51.161Z,6.65
2023-01-06T13:09:00.143Z,2.55
2023-01-06T13:14:05.034Z,3.33
2023-01-06T13:19:16.590Z,2.88
2023-01-06T13:24:27.664Z,4.13
2023-01-06T13:29:37.535Z,5.70
2023-01-06T13:34:53.406Z,4.75
2023-01-06T13:39:57.638Z,4.93
2023-01-06T13:45:00.135Z,4.53
2023-01-06T13:50:05.294Z,3.70
2023-01-06T13:55:22.512Z,2.25
2023-01-06T14:00:26.861Z,2.83
2023-01-06T14:05:47.876Z,6.75
2023-01-06T14:10:58.458Z,3.97
2023-01-06T14:16:02.940Z,2.78
2023-01-06T14:21:06.798Z,4.90
2023-01-06T14:26:11.254Z,6.32
2023-01-06T14:31:47.343Z,3.15
2023-01-06T14:36:51.331Z,11.15
2023-01-06T14:41:58.039Z,2.53
2023-01-06T14:47:02.553Z,1.65
2023-01-06T14:52:09.667Z,4.05
2023-01-06T14:57:25.719Z,2.88
2023-01-06T15:02:28.677Z,3.65
2023-01-06T15:07:31.322Z,3.17
2023-01-06T15:12:35.028Z,3.13
2023-01-06T15:17:37.501Z,2.10
2023-01-06T15:22:40.100Z,3.22
2023-01-06T15:27:49.061Z,3.43
2023-01-06T15:32:52.304Z,4.70
2023-01-06T15:37:58.854Z,4.40
2023-01-06T15:43:02.613Z,3.00
2023-01-06T15:48:09.839Z,1.77
2023-01-06T15:53:19.102Z,2.72
2023-01-06T15:58:23.918Z,8.02
2023-01-06T16:03:27.603Z,2.38
2023-01-06T16:08:30.635Z,4.90
2023-01-06T16:13:34.311Z,2.75
2023-01-06T16:18:37.748Z,4.38
2023-01-06T16:28:46.691Z,2.85
2023-01-06T16:33:49.042Z,4.85
2023-01-06T16:38:51.389Z,5.20
2023-01-06T16:43:55.073Z,3.88
2023-01-06T16:49:01.495Z,10.48
2023-01-06T16:54:10.573Z,9.15
2023-01-06T16:59:15.118Z,27.95
2023-01-06T17:04:17.564Z,13.30
2023-01-06T17:09:20.869Z,16.13
2023-01-06T17:14:24.577Z,9.52
2023-01-06T17:19:29.268Z,9.02
2023-01-06T17:24:31.707Z,8.05
2023-01-06T17:29:36.587Z,41.17
2023-01-06T17:34:40.154Z,42.47
2023-01-06T17:44:47.025Z,13.07
2023-01-06T17:49:51.936Z,12.88
2023-01-06T17:55:12.600Z,10.25
2023-01-06T18:00:22.492Z,12.00
2023-01-06T18:05:43.887Z,9.27
2023-01-06T18:10:50.647Z,17.10
2023-01-06T18:15:56.844Z,13.63
2023-01-06T18:21:01.300Z,10.32
2023-01-06T18:26:21.969Z,8.20
2023-01-06T18:31:27.924Z,8.90
2023-01-06T18:36:30.325Z,13.25
2023-01-06T18:41:32.751Z,25.38
2023-01-06T18:46:36.662Z,9.60
2023-01-06T18:51:39.027Z,15.85
2023-01-06T18:56:41.419Z,13.45
2023-01-06T19:01:46.078Z,15.93
2023-01-06T19:06:50.834Z,16.02
2023-01-06T19:12:00.544Z,18.20
2023-01-06T19:17:07.245Z,15.55
2023-01-06T19:22:26.973Z,21.05
2023-01-06T19:27:40.179Z,13.98
2023-01-06T19:32:43.862Z,16.63
2023-01-06T19:37:46.193Z,16.50
2023-01-06T19:42:48.568Z,15.98
2023-01-06T19:47:52.309Z,17.73
2023-01-06T19:52:56.801Z,16.33
2023-01-06T19:58:00.621Z,16.38
2023-01-06T20:03:04.700Z,17.65
2023-01-06T20:08:07.200Z,20.08
2023-01-06T20:13:09.578Z,17.40
2023-01-06T20:18:13.304Z,20.52
2023-01-06T20:23:15.840Z,20.75
2023-01-06T20:28:18.178Z,20.13
2023-01-06T20:33:24.575Z,23.10
2023-01-06T20:38:26.931Z,21.83
2023-01-06T20:43:29.318Z,21.08
2023-01-06T20:48:33.036Z,20.15
2023-01-06T20:53:35.442Z,19.25
2023-01-06T20:58:38.857Z,19.25
2023-01-06T21:08:48.967Z,22.05
2023-01-06T21:13:51.373Z,23.00
2023-01-06T21:18:53.741Z,20.73
2023-01-06T21:24:00.231Z,20.25
2023-01-06T21:29:02.675Z,20.83
2023-01-06T21:34:05.055Z,19.37
2023-01-06T21:39:08.943Z,19.20
2023-01-06T21:44:11.401Z,17.65
2023-01-06T21:49:13.788Z,16.87
2023-01-06T21:54:17.662Z,16.00
2023-01-06T21:59:20.059Z,17.10
2023-01-06T22:04:22.437Z,16.55
2023-01-06T22:09:26.903Z,16.40
2023-01-06T22:14:29.849Z,18.27
2023-01-06T22:19:32.310Z,19.63
2023-01-06T22:24:36.535Z,21.00
2023-01-06T22:29:38.917Z,18.23
2023-01-06T22:34:41.279Z,24.63
2023-01-06T22:39:46.614Z,20.60
2023-01-06T22:44:50.481Z,21.88
2023-01-06T22:49:52.875Z,27.58
2023-01-06T22:54:56.559Z,26.90
2023-01-06T23:00:00.090Z,28.25
2023-01-06T23:05:02.472Z,24.70
2023-01-06T23:10:06.742Z,29.40
2023-01-06T23:15:09.719Z,24.33
2023-01-06T23:20:12.463Z,27.02
2023-01-06T23:25:16.241Z,24.87
2023-01-06T23:30:18.706Z,23.98
2023-01-06T23:35:21.079Z,23.27
2023-01-06T23:40:24.860Z,21.48
2023-01-06T23:45:27.264Z,19.52
2023-01-06T23:50:29.635Z,18.00
2023-01-06T23:55:33.306Z,18.08
